Flight Track Log - Related Links

Times and Time Zones

All times are in EDT time to prevent confusion due to time zone crossing. See the SVA1466 flight status page for this flight to view local times or setup timezone preferences in your user account.

Time Position Orientation Groundspeed Altitude Reporting Facility
EDT Latitude Longitude Course Direction KTS MPH feet Rate Location/Type
07:42AM 22.0084 39.2181 10° North  Level Estimated
07:43AM 22.0906 39.2336 10° North  Level Estimated
07:44AM 22.1728 39.2490 10° North  Level Estimated
07:45AM 22.2550 39.2645 10° North  Level Estimated
07:46AM 22.3372 39.2800 10° North  Level Estimated
07:47AM 22.4194 39.2955 10° North  Level Estimated
07:48AM 22.5016 39.3110 10° North  Level Estimated
07:49AM 22.5838 39.3266 10° North  Level Estimated
07:50AM 22.6660 39.3422 10° North  Level Estimated
07:51AM 22.7482 39.3577 10° North  Level Estimated
07:52AM 22.8304 39.3733 10° North  Level Estimated
07:53AM 22.9126 39.3890 10° North  Level Estimated
07:54AM 22.9948 39.4046 10° North  Level Estimated
07:55AM 23.0770 39.4203 10° North  Level Estimated
07:56AM 23.1591 39.4360 10° North  Level Estimated
07:57AM 23.2413 39.4517 10° North  Level Estimated
07:58AM 23.3235 39.4674 10° North  Level Estimated
07:59AM 23.4057 39.4831 10° North  Level Estimated
08:00AM 23.4879 39.4989 10° North  Level Estimated
08:01AM 23.5700 39.5146 10° North  Level Estimated
08:02AM 23.6522 39.5304 10° North  Level Estimated
08:03AM 23.7344 39.5463 10° North  Level Estimated
08:04AM 23.8166 39.5621 10° North  Level Estimated
08:05AM 23.8987 39.5780 10° North  Level Estimated
08:06AM 23.9809 39.5938 10° North  Level Estimated
08:07AM 24.0631 39.6097 10° North  Level Estimated
08:08AM 24.1452 39.6257 10° North  Level Estimated
08:09AM 24.2274 39.6416 10° North  Level Estimated
08:10AM 24.3096 39.6576 10° North  Level Estimated
08:11AM 24.3917 39.6735 10° North  Level Estimated
08:12AM 24.4739 39.6895 10° North  Level Estimated
08:13AM 24.5534 39.7051 10° North  Level Estimated

Login

Don't have an account? Register now (free) for customized features, flight alerts, and more!